Delta Virtual Airport Information Service

Orlando International Airport

ICAO: KMCO Country: United States
Latitude: 28.4294 Longitude: -81.3089
Latest Arrival : DAL1525 (A) (KATL-KMCO) Latest Departure : JBU1190 (KMCO-KJFK)


WX CaptureLIVE
Data provided by noaa.gov | Fetched at 23:42:57

METAR : KMCO 250353Z 08006KT 10SM FEW015 OVC100 24/22 A2997 RMK AO2 RAE12 SLP148 P0001 T02440222 $

TAF : KMCO 250251Z 2503/2606 09008KT P6SM -RA SCT025 OVC080 FM251200 09011KT P6SM -RA SCT040 OVC060 FM251800 10016G23KT 5SM -RA VCTS SCT025CB OVC040 FM260300 09014KT P6SM -RA SCT040 OVC060


Runway Data for KMCO
Data provided by openaviationdata.com

Runway ID Mag Var Hdg Length Elevation Surface ILS Freq ILS Id ILS Slope
17L -5 184° 9025 ft 96 ft Concrete 110.95 IARK 3
17R -5 184° 10027 ft 96 ft Concrete 111.75 IDIZ 3
18L -5 184° 12037 ft 96 ft Asphalt -- -- --
18R -5 184° 12037 ft 96 ft Concrete 111.9 ITFE 3
35L -5 10027 ft 96 ft Concrete 110.5 IDDO 3
35R -5 9025 ft 96 ft Concrete 111.15 ICER 3
36L -5 12037 ft 96 ft Concrete -- -- --
36R -5 12037 ft 96 ft Asphalt 110.7 IOJP 3

Orlando International Airport, United States
Use only for reference purposes



Not for navigational purposes.